createdAt,value
2023-02-23T00:02:24.157Z,74.90
2023-02-23T00:04:53.224Z,74.80
2023-02-23T00:07:22.432Z,74.70
2023-02-23T00:09:52.988Z,74.70
2023-02-23T00:12:24.068Z,74.70
2023-02-23T00:14:54.478Z,74.60
2023-02-23T00:17:24.516Z,74.50
2023-02-23T00:19:53.548Z,74.40
2023-02-23T00:22:22.854Z,74.20
2023-02-23T00:24:51.904Z,74.20
2023-02-23T00:27:21.202Z,74.10
2023-02-23T00:29:51.113Z,74.10
2023-02-23T00:32:21.794Z,74.00
2023-02-23T00:34:53.560Z,74.00
2023-02-23T00:37:23.659Z,74.00
2023-02-23T00:39:53.006Z,74.00
2023-02-23T00:42:22.171Z,74.20
2023-02-23T00:44:51.598Z,74.30
2023-02-23T00:47:22.107Z,74.30
2023-02-23T00:49:51.737Z,74.30
2023-02-23T00:52:21.520Z,74.30
2023-02-23T00:54:51.565Z,74.30
2023-02-23T00:57:20.724Z,74.50
2023-02-23T00:59:54.226Z,74.50
2023-02-23T01:02:26.078Z,74.50
2023-02-23T01:04:55.100Z,74.50
2023-02-23T01:07:26.971Z,74.50
2023-02-23T01:09:56.020Z,74.30
2023-02-23T01:12:25.107Z,74.30
2023-02-23T01:14:54.297Z,74.30
2023-02-23T01:17:23.414Z,74.20
2023-02-23T01:19:55.302Z,74.20
2023-02-23T01:22:24.371Z,74.10
2023-02-23T01:24:53.406Z,74.00
2023-02-23T01:27:22.975Z,74.00
2023-02-23T01:29:52.091Z,73.80
2023-02-23T01:32:21.209Z,74.00
2023-02-23T01:34:50.409Z,74.00
2023-02-23T01:37:20.949Z,74.10
2023-02-23T01:39:50.173Z,74.10
2023-02-23T01:42:19.311Z,74.20
2023-02-23T01:45:21.953Z,74.20
2023-02-23T01:47:51.935Z,74.20
2023-02-23T01:50:25.394Z,74.20
2023-02-23T01:52:56.876Z,74.20
2023-02-23T01:55:29.373Z,74.10
2023-02-23T01:58:06.898Z,74.00
2023-02-23T02:00:37.828Z,73.90
2023-02-23T02:03:15.835Z,73.80
2023-02-23T02:05:46.768Z,73.80
2023-02-23T02:08:19.305Z,73.70
2023-02-23T02:10:55.914Z,73.70
2023-02-23T02:13:30.250Z,73.80
2023-02-23T02:16:21.312Z,73.90
2023-02-23T02:19:18.762Z,74.80
2023-02-23T02:22:21.084Z,73.90
2023-02-23T02:25:25.780Z,73.60
2023-02-23T02:28:23.529Z,73.40
2023-02-23T02:31:21.154Z,73.30
2023-02-23T02:34:08.502Z,73.20
2023-02-23T02:37:25.327Z,73.20
2023-02-23T02:40:15.563Z,73.30
2023-02-23T02:42:58.982Z,73.30
2023-02-23T02:45:37.502Z,73.30
2023-02-23T02:48:16.755Z,73.40
2023-02-23T02:50:50.949Z,73.60
2023-02-23T02:53:24.580Z,73.60
2023-02-23T02:55:59.840Z,73.70
2023-02-23T02:58:30.539Z,73.60
2023-02-23T03:01:26.527Z,73.70
2023-02-23T03:04:13.392Z,73.70
2023-02-23T03:07:05.663Z,73.60
2023-02-23T03:09:57.413Z,73.50
2023-02-23T03:12:57.616Z,73.40
2023-02-23T03:15:58.059Z,73.40
2023-02-23T03:19:03.749Z,73.30
2023-02-23T03:21:55.978Z,73.40
2023-02-23T03:24:51.295Z,73.40
2023-02-23T03:27:43.543Z,73.40
2023-02-23T03:30:39.007Z,73.40
2023-02-23T03:33:33.370Z,73.60
2023-02-23T03:36:26.564Z,73.60
2023-02-23T03:39:19.678Z,74.70
2023-02-23T03:42:09.702Z,74.10
2023-02-23T03:45:02.058Z,74.20
2023-02-23T03:47:55.860Z,74.20
2023-02-23T03:50:49.559Z,74.20
2023-02-23T03:53:42.428Z,74.00
2023-02-23T03:56:30.419Z,73.90
2023-02-23T03:59:19.598Z,73.80
2023-02-23T04:02:08.736Z,73.90
2023-02-23T04:04:58.465Z,73.90
2023-02-23T04:07:45.426Z,73.90
2023-02-23T04:10:32.145Z,73.80
2023-02-23T04:13:16.936Z,73.80
2023-02-23T04:15:50.755Z,73.80
2023-02-23T04:18:25.725Z,73.80
2023-02-23T04:20:56.597Z,73.90
2023-02-23T04:23:26.457Z,73.90
2023-02-23T04:25:56.637Z,74.00
2023-02-23T04:28:27.370Z,74.00
2023-02-23T04:30:56.536Z,74.00
2023-02-23T04:33:27.252Z,74.10
2023-02-23T04:35:57.638Z,74.10
2023-02-23T04:38:26.620Z,74.10
2023-02-23T04:40:55.762Z,74.20
2023-02-23T04:43:24.742Z,74.10
2023-02-23T04:45:53.749Z,74.20
2023-02-23T04:48:25.141Z,74.20
2023-02-23T04:50:54.538Z,74.20
2023-02-23T04:53:25.909Z,74.30
2023-02-23T04:55:54.920Z,74.50
2023-02-23T04:58:23.978Z,74.60
2023-02-23T05:00:53.293Z,74.60
2023-02-23T05:03:22.418Z,74.60
2023-02-23T05:05:51.413Z,74.70
2023-02-23T05:08:20.401Z,74.60
2023-02-23T05:10:50.790Z,74.70
2023-02-23T05:13:20.674Z,74.70
2023-02-23T05:15:49.716Z,74.70
2023-02-23T05:18:18.793Z,74.80
2023-02-23T05:20:47.756Z,74.70
2023-02-23T05:23:16.947Z,74.60
2023-02-23T05:25:45.951Z,74.60
2023-02-23T05:28:16.417Z,74.60
2023-02-23T05:30:45.548Z,74.60
2023-02-23T05:33:18.204Z,74.60
2023-02-23T05:35:47.540Z,74.70
2023-02-23T05:38:16.529Z,74.80
2023-02-23T05:40:45.524Z,74.80
2023-02-23T05:43:15.948Z,74.80
2023-02-23T05:45:45.502Z,74.80
2023-02-23T05:48:14.716Z,74.70
2023-02-23T05:50:43.756Z,74.60
2023-02-23T05:53:12.768Z,74.50
2023-02-23T05:55:41.846Z,74.50
2023-02-23T05:58:10.933Z,74.40
2023-02-23T06:00:41.412Z,74.40
2023-02-23T06:03:10.554Z,74.50
2023-02-23T06:05:39.608Z,74.50
2023-02-23T06:08:08.701Z,74.40
2023-02-23T06:10:37.863Z,74.50
2023-02-23T06:13:06.900Z,74.50
2023-02-23T06:15:36.041Z,74.50
2023-02-23T06:18:06.644Z,74.50
2023-02-23T06:20:36.042Z,74.50
2023-02-23T06:23:06.480Z,74.40
2023-02-23T06:25:35.875Z,74.40
2023-02-23T06:28:05.156Z,74.40
2023-02-23T06:30:34.250Z,74.30
2023-02-23T06:33:03.704Z,74.40
2023-02-23T06:35:34.844Z,74.50
2023-02-23T06:38:05.744Z,74.70
2023-02-23T06:40:36.018Z,74.90
2023-02-23T06:43:05.289Z,75.10
2023-02-23T06:45:34.696Z,75.20
2023-02-23T06:48:04.014Z,75.20
2023-02-23T06:50:34.375Z,75.20
2023-02-23T06:53:03.474Z,75.20
2023-02-23T06:55:32.724Z,75.20
2023-02-23T06:58:01.851Z,75.10
2023-02-23T07:00:30.955Z,75.10
2023-02-23T07:03:00.129Z,75.10
2023-02-23T07:05:29.690Z,75.00
2023-02-23T07:08:00.087Z,75.00
2023-02-23T07:10:29.176Z,75.00
2023-02-23T07:12:59.046Z,75.20
2023-02-23T07:15:28.021Z,75.30
2023-02-23T07:17:57.598Z,75.40
2023-02-23T07:20:26.624Z,75.30
2023-02-23T07:22:56.071Z,75.40
2023-02-23T07:25:26.464Z,75.60
2023-02-23T07:27:55.711Z,75.60
2023-02-23T07:30:25.031Z,75.60
2023-02-23T07:32:54.792Z,75.60
2023-02-23T07:35:24.971Z,75.60
2023-02-23T07:37:54.575Z,75.70
2023-02-23T07:40:25.602Z,75.80
2023-02-23T07:42:55.483Z,75.80
2023-02-23T07:45:25.176Z,76.00
2023-02-23T07:47:54.267Z,76.00
2023-02-23T07:50:23.339Z,76.10
2023-02-23T07:52:52.723Z,76.20
2023-02-23T07:55:22.505Z,76.40
2023-02-23T07:57:52.925Z,76.40
2023-02-23T08:00:22.625Z,76.40
2023-02-23T08:02:53.225Z,76.30
2023-02-23T08:05:22.363Z,76.30
2023-02-23T08:07:51.556Z,76.30
2023-02-23T08:10:20.865Z,76.30
2023-02-23T08:12:50.195Z,76.20
2023-02-23T08:15:22.316Z,76.20
2023-02-23T08:17:51.375Z,76.20
2023-02-23T08:20:20.653Z,76.20
2023-02-23T08:22:53.980Z,76.10
2023-02-23T08:25:23.053Z,76.20
2023-02-23T08:27:53.298Z,76.20
2023-02-23T08:30:26.684Z,76.10
2023-02-23T08:32:55.870Z,76.10
2023-02-23T08:35:25.002Z,76.00
2023-02-23T08:37:54.105Z,76.00
2023-02-23T08:40:23.170Z,75.90
2023-02-23T08:42:52.773Z,75.60
2023-02-23T08:45:23.535Z,75.50
2023-02-23T08:47:52.711Z,75.40
2023-02-23T08:50:21.856Z,75.20
2023-02-23T08:52:50.944Z,75.20
2023-02-23T08:55:21.831Z,75.00
2023-02-23T08:57:51.171Z,74.90
2023-02-23T09:00:21.378Z,74.90
2023-02-23T09:02:51.870Z,74.70
2023-02-23T09:05:20.968Z,74.50
2023-02-23T09:07:50.931Z,74.40
2023-02-23T09:10:24.922Z,74.20
2023-02-23T09:12:54.068Z,73.90
2023-02-23T09:15:23.613Z,73.70
2023-02-23T09:17:54.567Z,73.50
2023-02-23T09:20:26.852Z,73.50
2023-02-23T09:22:56.327Z,73.30
2023-02-23T09:25:25.570Z,73.10
2023-02-23T09:27:57.124Z,73.10
2023-02-23T09:30:26.576Z,72.90
2023-02-23T09:32:57.538Z,72.80
2023-02-23T09:35:27.104Z,72.50
2023-02-23T09:37:57.239Z,72.40
2023-02-23T09:40:29.150Z,72.30
2023-02-23T09:43:03.950Z,72.10
2023-02-23T09:45:40.524Z,72.00
2023-02-23T09:48:20.378Z,71.70
2023-02-23T09:50:52.548Z,71.50
2023-02-23T09:53:39.315Z,71.40
2023-02-23T09:56:14.774Z,71.00
2023-02-23T09:58:44.716Z,70.90
2023-02-23T10:01:47.967Z,70.80
2023-02-23T10:04:22.617Z,70.60
2023-02-23T10:06:59.997Z,70.30
2023-02-23T10:09:43.210Z,69.80
2023-02-23T10:12:19.870Z,69.80
2023-02-23T10:15:17.501Z,69.50
2023-02-23T10:17:56.571Z,69.30
2023-02-23T10:20:36.198Z,69.40
2023-02-23T10:23:08.922Z,68.90
2023-02-23T10:25:43.107Z,68.70
2023-02-23T10:28:16.650Z,68.20
2023-02-23T10:30:46.791Z,68.20
2023-02-23T10:33:20.728Z,68.20
2023-02-23T10:36:07.522Z,68.20
2023-02-23T10:38:41.176Z,67.90
2023-02-23T10:41:14.853Z,67.40
2023-02-23T10:43:44.222Z,67.50
2023-02-23T10:46:22.346Z,67.10
2023-02-23T10:48:55.751Z,67.10
2023-02-23T10:51:31.267Z,66.80
2023-02-23T10:54:07.795Z,66.70
2023-02-23T10:56:45.966Z,66.60
2023-02-23T10:59:20.663Z,66.20
2023-02-23T11:02:01.410Z,66.20
2023-02-23T11:04:35.144Z,66.30
2023-02-23T11:07:11.064Z,66.10
2023-02-23T11:09:47.149Z,65.90
2023-02-23T11:12:22.101Z,65.90
2023-02-23T11:14:53.255Z,66.10
2023-02-23T11:17:32.997Z,65.90
2023-02-23T11:20:11.273Z,65.80
2023-02-23T11:22:43.176Z,65.20
2023-02-23T11:25:22.053Z,65.00
2023-02-23T11:27:53.997Z,64.90
2023-02-23T11:30:25.564Z,64.50
2023-02-23T11:32:57.648Z,64.10
2023-02-23T11:35:32.400Z,63.50
2023-02-23T11:38:17.285Z,63.70
2023-02-23T11:41:00.552Z,63.60
2023-02-23T11:43:30.355Z,63.30
2023-02-23T11:46:01.959Z,63.60
2023-02-23T11:48:35.955Z,63.40
2023-02-23T11:51:05.730Z,62.80
2023-02-23T11:53:40.229Z,62.10
2023-02-23T11:56:11.283Z,61.40
2023-02-23T11:58:43.676Z,60.80
2023-02-23T12:01:16.951Z,60.40
2023-02-23T12:03:48.840Z,60.60
2023-02-23T12:06:30.097Z,59.50
2023-02-23T12:09:06.327Z,59.00
2023-02-23T12:11:40.914Z,58.40
2023-02-23T12:14:18.268Z,58.40
2023-02-23T12:16:50.996Z,59.10
2023-02-23T12:19:29.502Z,58.70
2023-02-23T12:22:04.962Z,58.50
2023-02-23T12:24:44.802Z,58.70
2023-02-23T12:27:17.615Z,58.70
2023-02-23T12:30:08.952Z,58.50
2023-02-23T12:32:46.979Z,58.10
2023-02-23T12:35:20.881Z,58.20
2023-02-23T12:37:54.376Z,58.30
2023-02-23T12:40:29.248Z,58.20
2023-02-23T12:43:03.975Z,58.30
2023-02-23T12:45:38.436Z,58.20
2023-02-23T12:48:20.764Z,58.20
2023-02-23T12:50:54.312Z,58.30
2023-02-23T12:53:27.200Z,58.20
2023-02-23T12:56:18.790Z,58.20
2023-02-23T12:58:56.849Z,58.20
2023-02-23T13:01:29.436Z,57.50
2023-02-23T13:04:28.181Z,57.30
2023-02-23T13:07:05.265Z,57.00
2023-02-23T13:09:47.861Z,57.00
2023-02-23T13:12:29.049Z,57.30
2023-02-23T13:15:09.518Z,57.10
2023-02-23T13:17:44.461Z,58.00
2023-02-23T13:20:20.713Z,57.60
2023-02-23T13:22:55.628Z,57.50
2023-02-23T13:25:34.093Z,57.20
2023-02-23T13:28:05.410Z,57.40
2023-02-23T13:30:35.579Z,57.70
2023-02-23T13:33:14.549Z,57.60
2023-02-23T13:35:43.912Z,57.90
2023-02-23T13:38:20.636Z,58.10
2023-02-23T13:40:54.888Z,58.00
2023-02-23T13:43:30.506Z,57.90
2023-02-23T13:46:17.435Z,58.00
2023-02-23T13:48:58.862Z,57.60
2023-02-23T13:51:38.620Z,57.50
2023-02-23T13:54:24.794Z,57.70
2023-02-23T13:56:57.045Z,57.90
2023-02-23T13:59:30.532Z,58.10
2023-02-23T14:02:02.382Z,58.50
2023-02-23T14:04:38.237Z,58.70
2023-02-23T14:07:18.964Z,58.60
2023-02-23T14:09:55.102Z,58.50
2023-02-23T14:12:27.664Z,58.60
2023-02-23T14:15:18.152Z,58.70
2023-02-23T14:17:57.969Z,58.70
2023-02-23T14:20:47.625Z,59.00
2023-02-23T14:23:51.482Z,58.90
2023-02-23T14:26:40.333Z,59.00
2023-02-23T14:29:28.438Z,59.10
2023-02-23T14:32:29.954Z,59.30
2023-02-23T14:35:00.110Z,59.40
2023-02-23T14:37:32.875Z,59.60
2023-02-23T14:40:10.586Z,59.60
2023-02-23T14:42:40.986Z,59.70
2023-02-23T14:45:20.844Z,59.70
2023-02-23T14:47:53.036Z,59.80
2023-02-23T14:50:27.060Z,59.90
2023-02-23T14:52:57.574Z,60.00
2023-02-23T14:55:29.536Z,60.10
2023-02-23T14:57:59.383Z,60.30
2023-02-23T15:00:32.657Z,60.50
2023-02-23T15:03:05.615Z,60.50
2023-02-23T15:05:37.923Z,60.60
2023-02-23T15:08:10.721Z,60.70
2023-02-23T15:10:43.412Z,60.80
2023-02-23T15:13:18.734Z,60.90
2023-02-23T15:15:49.797Z,60.90
2023-02-23T15:18:24.626Z,61.10
2023-02-23T15:20:54.685Z,61.10
2023-02-23T15:23:23.992Z,61.40
2023-02-23T15:25:53.252Z,61.50
2023-02-23T15:28:25.439Z,61.60
2023-02-23T15:30:56.603Z,61.70
2023-02-23T15:33:30.383Z,61.80
2023-02-23T15:36:08.822Z,61.90
2023-02-23T15:38:44.535Z,62.00
2023-02-23T15:41:20.001Z,62.20
2023-02-23T15:43:49.482Z,62.30
2023-02-23T15:46:25.005Z,62.40
2023-02-23T15:49:00.852Z,62.40
2023-02-23T15:51:37.262Z,62.50
2023-02-23T15:54:14.154Z,62.70
2023-02-23T15:56:47.075Z,62.90
2023-02-23T15:59:28.727Z,63.00
2023-02-23T16:02:02.912Z,63.20
2023-02-23T16:04:36.781Z,63.30
2023-02-23T16:07:16.276Z,63.50
2023-02-23T16:09:53.835Z,63.60
2023-02-23T16:12:25.736Z,63.70
2023-02-23T16:14:58.280Z,64.80
2023-02-23T16:17:32.057Z,64.10
2023-02-23T16:20:15.992Z,64.20
2023-02-23T16:22:47.098Z,64.40
2023-02-23T16:25:19.171Z,64.50
2023-02-23T16:27:55.069Z,64.70
2023-02-23T16:30:34.707Z,64.90
2023-02-23T16:33:08.496Z,65.10
2023-02-23T16:35:45.465Z,65.30
2023-02-23T16:38:16.253Z,65.40
2023-02-23T16:40:45.262Z,65.50
2023-02-23T16:43:14.374Z,65.50
2023-02-23T16:45:44.336Z,65.70
2023-02-23T16:48:17.844Z,65.90
2023-02-23T16:50:49.084Z,66.10
2023-02-23T16:53:18.353Z,66.30
2023-02-23T16:55:51.044Z,66.50
2023-02-23T16:58:23.269Z,66.60
2023-02-23T17:00:53.675Z,66.70
2023-02-23T17:03:25.208Z,66.80
2023-02-23T17:05:56.200Z,67.00
2023-02-23T17:08:26.182Z,67.20
2023-02-23T17:10:57.418Z,67.40
2023-02-23T17:13:27.609Z,67.60
2023-02-23T17:15:57.950Z,67.80
2023-02-23T17:18:29.760Z,67.90
2023-02-23T17:21:02.541Z,68.00
2023-02-23T17:23:39.160Z,68.20
2023-02-23T17:26:08.717Z,68.30
2023-02-23T17:28:38.371Z,68.50
2023-02-23T17:31:08.500Z,68.80
2023-02-23T17:33:38.578Z,68.70
2023-02-23T17:36:12.119Z,68.70
2023-02-23T17:38:44.272Z,68.70
2023-02-23T17:41:16.545Z,69.00
2023-02-23T17:43:45.918Z,69.20
2023-02-23T17:46:15.384Z,69.20
2023-02-23T17:48:46.853Z,69.30
2023-02-23T17:51:19.606Z,69.50
2023-02-23T17:53:49.274Z,69.70
2023-02-23T17:56:20.008Z,69.70
2023-02-23T17:58:49.232Z,69.90
2023-02-23T18:01:20.023Z,70.30
2023-02-23T18:03:51.112Z,70.10
2023-02-23T18:06:21.665Z,70.20
2023-02-23T18:08:50.676Z,70.40
2023-02-23T18:11:19.928Z,70.50
2023-02-23T18:13:51.517Z,70.50
2023-02-23T18:16:22.926Z,70.70
2023-02-23T18:18:52.725Z,70.90
2023-02-23T18:21:24.299Z,71.10
2023-02-23T18:23:53.564Z,71.20
2023-02-23T18:26:24.795Z,71.40
2023-02-23T18:28:55.930Z,71.60
2023-02-23T18:31:28.119Z,71.60
2023-02-23T18:33:58.267Z,71.40
2023-02-23T18:36:30.612Z,71.50
2023-02-23T18:39:00.970Z,71.60
2023-02-23T18:41:31.247Z,71.80
2023-02-23T18:44:01.341Z,72.00
2023-02-23T18:46:31.058Z,72.10
2023-02-23T18:49:00.517Z,72.10
2023-02-23T18:51:31.282Z,72.30
2023-02-23T18:54:02.364Z,73.00
2023-02-23T18:56:31.724Z,72.50
2023-02-23T18:59:01.926Z,72.70
2023-02-23T19:01:33.439Z,72.80
2023-02-23T19:04:03.770Z,72.90
2023-02-23T19:06:37.467Z,73.10
2023-02-23T19:09:12.350Z,73.30
2023-02-23T19:11:43.502Z,73.30
2023-02-23T19:14:15.978Z,73.40
2023-02-23T19:16:45.494Z,73.60
2023-02-23T19:19:15.266Z,73.70
2023-02-23T19:21:45.865Z,73.70
2023-02-23T19:24:15.152Z,73.80
2023-02-23T19:26:44.512Z,74.70
2023-02-23T19:29:15.772Z,74.00
2023-02-23T19:31:45.009Z,74.10
2023-02-23T19:34:15.442Z,75.10
2023-02-23T19:36:47.109Z,74.10
2023-02-23T19:39:16.805Z,74.30
2023-02-23T19:41:47.175Z,74.40
2023-02-23T19:44:16.297Z,74.60
2023-02-23T19:46:45.275Z,74.70
2023-02-23T19:49:14.398Z,74.70
2023-02-23T19:51:45.256Z,74.80
2023-02-23T19:54:14.333Z,74.80
2023-02-23T19:56:43.809Z,74.90
2023-02-23T19:59:13.227Z,75.10
2023-02-23T20:01:43.874Z,75.20
2023-02-23T20:04:13.163Z,75.30
2023-02-23T20:06:47.050Z,75.40
2023-02-23T20:09:17.629Z,75.50
2023-02-23T20:11:46.782Z,75.60
2023-02-23T20:14:15.797Z,75.70
2023-02-23T20:16:44.892Z,75.80
2023-02-23T20:19:13.916Z,75.90
2023-02-23T20:21:43.539Z,76.00
2023-02-23T20:24:12.977Z,76.10
2023-02-23T20:26:43.525Z,76.20
2023-02-23T20:29:17.996Z,76.40
2023-02-23T20:31:50.919Z,76.50
2023-02-23T20:34:23.994Z,76.70
2023-02-23T20:36:53.952Z,76.90
2023-02-23T20:39:24.530Z,77.00
2023-02-23T20:41:55.144Z,77.10
2023-02-23T20:44:25.719Z,77.20
2023-02-23T20:46:54.797Z,77.40
2023-02-23T20:49:25.224Z,77.40
2023-02-23T20:51:54.439Z,77.40
2023-02-23T20:54:23.716Z,77.40
2023-02-23T20:56:59.044Z,77.50
2023-02-23T20:59:31.054Z,77.60
2023-02-23T21:02:02.336Z,77.50
2023-02-23T21:04:32.122Z,77.60
2023-02-23T21:07:01.307Z,77.70
2023-02-23T21:09:32.923Z,77.50
2023-02-23T21:12:04.035Z,77.60
2023-02-23T21:14:34.598Z,77.80
2023-02-23T21:17:05.433Z,77.80
2023-02-23T21:19:34.666Z,77.80
2023-02-23T21:22:03.748Z,78.10
2023-02-23T21:24:34.921Z,78.40
2023-02-23T21:27:05.713Z,78.60
2023-02-23T21:29:34.907Z,78.80
2023-02-23T21:32:04.701Z,78.60
2023-02-23T21:34:33.766Z,78.70
2023-02-23T21:37:03.070Z,78.90
2023-02-23T21:39:32.223Z,79.00
2023-02-23T21:42:01.435Z,79.20
2023-02-23T21:44:31.924Z,79.20
2023-02-23T21:47:04.971Z,79.40
2023-02-23T21:49:34.378Z,79.60
2023-02-23T21:52:03.606Z,79.60
2023-02-23T21:54:36.648Z,79.80
2023-02-23T21:57:05.776Z,79.80
2023-02-23T21:59:37.311Z,79.80
2023-02-23T22:02:06.542Z,79.90
2023-02-23T22:04:36.949Z,80.00
2023-02-23T22:07:06.740Z,80.00
2023-02-23T22:09:36.462Z,80.10
2023-02-23T22:12:07.536Z,80.10
2023-02-23T22:14:38.143Z,80.20
2023-02-23T22:17:09.652Z,80.20
2023-02-23T22:19:38.953Z,80.30
2023-02-23T22:22:08.105Z,80.30
2023-02-23T22:24:37.193Z,80.30
2023-02-23T22:27:07.807Z,80.40
2023-02-23T22:29:38.234Z,80.50
2023-02-23T22:32:07.715Z,80.60
2023-02-23T22:34:36.926Z,80.60
2023-02-23T22:37:05.949Z,80.70
2023-02-23T22:39:35.198Z,80.80
2023-02-23T22:42:09.402Z,80.90
2023-02-23T22:44:40.192Z,81.00
2023-02-23T22:47:09.458Z,81.00
2023-02-23T22:49:38.916Z,81.10
2023-02-23T22:52:07.941Z,81.10
2023-02-23T22:54:37.352Z,81.10
2023-02-23T22:57:06.538Z,81.20
2023-02-23T22:59:35.709Z,81.20
2023-02-23T23:02:06.120Z,81.30
2023-02-23T23:04:35.499Z,81.20
2023-02-23T23:07:06.272Z,81.30
2023-02-23T23:09:38.773Z,81.20
2023-02-23T23:12:08.210Z,81.20
2023-02-23T23:14:37.266Z,81.20
2023-02-23T23:17:09.674Z,81.30
2023-02-23T23:19:39.187Z,81.30
2023-02-23T23:22:14.354Z,81.40
2023-02-23T23:24:46.275Z,81.30
2023-02-23T23:27:16.031Z,81.30
2023-02-23T23:29:46.838Z,81.50
2023-02-23T23:32:18.835Z,81.60
2023-02-23T23:34:49.309Z,81.60
2023-02-23T23:37:20.182Z,81.50
2023-02-23T23:39:59.149Z,81.60
2023-02-23T23:42:28.325Z,81.70
2023-02-23T23:44:57.584Z,81.80
2023-02-23T23:47:30.486Z,81.80
2023-02-23T23:50:00.038Z,81.80
2023-02-23T23:52:30.083Z,81.90
2023-02-23T23:54:59.168Z,81.90
2023-02-23T23:57:28.249Z,82.00
2023-02-23T23:59:57.376Z,82.00
